Albany, NY

5:27 PM EDT on July 07, 2015 (GMT -0400)
Whitehall | | Change Station
CLOSE
Current Station
Personal Weather Station
Location: Albany, NY
Elevation: 226 ft
Nearby Weather Stations

Elev 226 ft 42.65 °N, 73.80 °W | Updated 42 seconds ago

Overcast
Overcast
80.8 °F
Feels Like 86 °F
N
4.0
Wind Variable Wind from NE
Gusts 4.9 mph

Today
High -- | Low -- °F
--% Chance of Precip.
Yesterday
High -- | Low -- °F
Precip. -- in
5:24 AM 8:35 PM
Waning Gibbous, 61% visible
Pressure 29.91 in
Visibility 10.0 miles
Clouds Few 3000 ft
Few 7000 ft
Scattered Clouds 11000 ft
Mostly Cloudy 15000 ft
Heat Index 86 °F
Dew Point 73 °F
Humidity 78%
Rainfall 0.14 in
Snow Depth Not available.
UV 2.0 out of 12
Pollen 3.00 out of 12
Air Quality Not available.
Flu Activity Not available.
METAR KALB 072051Z 16008KT 10SM FEW030 FEW070 SCT110 BKN150 27/21 A2991 RMK AO2 SLP128 60030 T02720211 58006

More Conditions Fewer Conditions

Pressure 29.91 in
Visibility 10.0 miles
Clouds Few 3000 ft
Few 7000 ft
Scattered Clouds 11000 ft
Mostly Cloudy 15000 ft
Heat Index 86 °F
Dew Point 73 °F
Humidity 78%
Rainfall 0.14 in
Snow Depth Not available.
UV 2.0 out of 12
Pollen 3.00 out of 12
Air Quality Not available.
Flu Activity Not available.
METAR KALB 072051Z 16008KT 10SM FEW030 FEW070 SCT110 BKN150 27/21 A2991 RMK AO2 SLP128 60030 T02720211 58006

More Conditions Fewer Conditions

10-Day Weather Forecast

×

Almanac

Astronomy

Jul. 07, 2015 Rise Set
Actual Time
Civil Twilight
Nautical Twilight
Astronomical Twilight
Moon
Length of Visible Light
Length of Day
Tomorrow will be .
, % of the Moon is Illuminated

Today's Extremes

State Highs State Lows

Community

WunderPhotos

Upload Photos

1,835,923 photos uploaded!

WunderBlogs® & News

Nearby

Air Quality

  Air Quality AQ Index Pollutant
Not available.

Snow Depth

Station Depth Elevation

Earthquake Activity

City Distance Mag. Time & Date
Minimum magnitude displayed is 2.5.

Coastal Water Temperatures

Place Temperature

Stations

Nearby Weather Stations

Station Location Temp. Windchill Dew Point Humidity Wind Precip. Elev Updated Type